Time;durP1;ratioP1;P1;durP2;ratioP2;P2;SDS_P1;SDS_P2;PMS_P1;PMS_P2;Temp;Humidity;BMP_temperature;BMP_pressure;BME280_temperature;BME280_humidity;BME280_pressure;Samples;Min_cycle;Max_cycle;Signal;HPM_P1;HPM_P2
2023/02/16 00:01:24;;;;;;;55.42;10.05;;;;;;;-1.40;99.21;97343.19;5048647;28;20045;-74
2023/02/16 00:03:52;;;;;;;46.53;10.48;;;;;;;-1.38;99.17;97349.13;5048983;28;20048;-74
2023/02/16 00:06:19;;;;;;;60.38;10.07;;;;;;;-1.48;99.20;97348.78;5048811;28;20527;-74
2023/02/16 00:08:47;;;;;;;48.20;10.75;;;;;;;-1.41;99.16;97351.41;5049274;28;20083;-73
2023/02/16 00:14:09;;;;;;;47.33;10.10;;;;;;;-1.35;99.17;97351.38;5049111;28;20134;-74
2023/02/16 00:16:36;;;;;;;39.83;10.48;;;;;;;-1.38;99.09;97340.28;5049408;28;20508;-74
2023/02/16 00:19:15;;;;;;;34.10;10.68;;;;;;;-1.44;99.22;97327.81;5048846;28;20057;-74
2023/02/16 00:21:41;;;;;;;38.83;9.85;;;;;;;-1.57;99.29;97331.38;5048995;28;20049;-73
2023/02/16 00:24:08;;;;;;;34.25;9.05;;;;;;;-1.61;99.43;97325.69;5048555;28;20048;-74
2023/02/16 00:26:35;;;;;;;55.03;10.95;;;;;;;-1.61;99.15;97322.19;5048087;28;20094;-73
2023/02/16 00:29:02;;;;;;;60.72;10.65;;;;;;;-1.67;99.11;97331.88;5048201;28;20041;-75
2023/02/16 00:31:31;;;;;;;41.15;9.38;;;;;;;-1.74;99.06;97320.41;5050413;28;20049;-74
2023/02/16 00:33:58;;;;;;;36.88;10.27;;;;;;;-1.70;99.19;97316.28;5052258;28;20132;-73
2023/02/16 00:36:25;;;;;;;48.38;10.00;;;;;;;-1.71;98.93;97320.00;5051568;28;20045;-73
2023/02/16 00:38:51;;;;;;;45.05;9.88;;;;;;;-1.63;99.19;97316.22;5053339;28;20408;-73
2023/02/16 00:44:06;;;;;;;31.75;9.13;;;;;;;-1.67;99.40;97310.53;5053141;28;20051;-73
2023/02/16 00:46:33;;;;;;;28.00;8.88;;;;;;;-1.72;99.39;97309.50;5054434;28;20037;-74
2023/02/16 00:48:59;;;;;;;33.88;9.40;;;;;;;-1.70;99.40;97315.47;5053590;28;20087;-74
2023/02/16 00:51:26;;;;;;;31.35;8.27;;;;;;;-1.67;99.09;97309.69;5056397;28;20044;-74
2023/02/16 00:53:52;;;;;;;29.88;9.23;;;;;;;-1.65;98.83;97323.66;5060046;28;20048;-74
2023/02/16 00:56:20;;;;;;;52.25;10.38;;;;;;;-1.66;98.70;97317.50;5059514;28;20056;-74
2023/02/16 00:58:50;;;;;;;38.72;10.07;;;;;;;-1.71;98.59;97319.19;5059088;28;20068;-74
2023/02/16 01:01:20;;;;;;;45.53;10.63;;;;;;;-1.67;98.75;97309.69;5058223;28;20550;-74
2023/02/16 01:03:47;;;;;;;43.45;11.25;;;;;;;-1.66;98.64;97306.00;5058925;28;20052;-74
2023/02/16 01:11:55;;;;;;;44.30;10.45;;;;;;;-1.71;98.68;97292.47;5052169;28;20056;-73
2023/02/16 01:14:22;;;;;;;50.90;11.55;;;;;;;-1.80;98.94;97293.78;5051362;28;20053;-73
2023/02/16 01:16:50;;;;;;;49.15;10.70;;;;;;;-1.75;99.13;97291.28;5051764;28;20052;-74
2023/02/16 01:19:17;;;;;;;39.35;9.38;;;;;;;-1.74;99.00;97292.91;5051541;28;20432;-73
2023/02/16 01:21:43;;;;;;;48.10;10.70;;;;;;;-1.76;98.82;97305.66;5052028;28;20041;-74
2023/02/16 01:24:10;;;;;;;57.25;10.95;;;;;;;-1.80;98.72;97307.13;5050949;28;20420;-75
2023/02/16 01:26:39;;;;;;;42.70;9.27;;;;;;;-1.82;98.39;97311.88;5051740;28;20049;-74
2023/02/16 01:29:06;;;;;;;48.10;10.93;;;;;;;-1.82;98.23;97306.53;5051334;28;20049;-75
2023/02/16 01:31:32;;;;;;;45.35;10.18;;;;;;;-1.81;98.60;97295.63;5051745;28;20071;-74
2023/02/16 01:34:00;;;;;;;46.75;10.90;;;;;;;-1.80;99.13;97291.09;5051315;28;20048;-74
2023/02/16 01:36:31;;;;;;;44.42;9.45;;;;;;;-1.69;99.01;97298.41;5051204;28;20048;-74
2023/02/16 01:38:58;;;;;;;32.20;10.32;;;;;;;-1.73;98.90;97299.88;5051310;28;20056;-74
2023/02/16 01:41:37;;;;;;;43.13;10.43;;;;;;;-1.75;99.01;97297.44;5050725;28;20053;-74
2023/02/16 01:44:09;;;;;;;48.60;10.15;;;;;;;-1.69;98.47;97301.06;5050349;28;20072;-75
2023/02/16 01:46:43;;;;;;;55.45;10.23;;;;;;;-1.68;98.01;97289.34;5051502;28;20048;-74
2023/02/16 01:49:14;;;;;;;44.75;9.40;;;;;;;-1.73;98.02;97294.53;5051029;28;20060;-74
2023/02/16 01:51:51;;;;;;;55.53;9.93;;;;;;;-1.76;98.04;97293.13;5051427;28;20045;-73
2023/02/16 01:54:28;;;;;;;53.55;10.20;;;;;;;-1.84;98.15;97283.50;5035928;28;20067;-74
2023/02/16 01:57:01;;;;;;;46.00;10.13;;;;;;;-1.76;98.36;97286.97;5052251;28;20053;-74
2023/02/16 01:59:40;;;;;;;63.35;10.82;;;;;;;-1.73;98.24;97289.19;5051394;28;20131;-74
2023/02/16 02:02:14;;;;;;;44.53;9.73;;;;;;;-1.72;98.17;97280.13;5050613;28;20045;-75
2023/02/16 02:07:37;;;;;;;55.78;11.50;;;;;;;-1.92;98.71;97274.97;5035413;28;20417;-74
2023/02/16 02:10:10;;;;;;;61.22;12.45;;;;;;;-1.84;98.89;97272.84;5050553;28;20045;-74
2023/02/16 02:12:42;;;;;;;81.97;13.18;;;;;;;-1.78;98.69;97271.16;5050987;28;20040;-74
2023/02/16 02:15:11;;;;;;;66.15;12.85;;;;;;;-1.74;98.52;97261.69;5049873;28;20045;-74
2023/02/16 02:17:37;;;;;;;53.72;12.25;;;;;;;-1.76;98.17;97265.59;5050841;28;20052;-74
2023/02/16 02:20:16;;;;;;;42.15;11.98;;;;;;;-1.73;98.02;97268.63;5050408;28;20045;-74
2023/02/16 02:23:32;;;;;;;51.78;12.10;;;;;;;-1.69;98.12;97279.72;5050498;28;20049;-74
2023/02/16 02:26:25;;;;;;;50.00;11.00;;;;;;;-1.77;98.31;97282.66;5050612;28;20099;-74
2023/02/16 02:29:06;;;;;;;71.60;12.50;;;;;;;-1.81;98.22;97276.13;5050423;28;20056;-74
2023/02/16 02:31:48;;;;;;;53.45;10.80;;;;;;;-1.84;98.33;97278.16;5050584;28;20052;-74
2023/02/16 02:34:26;;;;;;;75.18;13.68;;;;;;;-1.81;98.32;97274.28;5044525;28;20517;-73
2023/02/16 02:37:07;;;;;;;65.22;12.43;;;;;;;-1.86;98.15;97269.56;5041493;28;20075;-74
2023/02/16 02:39:43;;;;;;;63.38;13.35;;;;;;;-1.92;98.36;97270.44;5048851;28;20061;-73
2023/02/16 02:42:13;;;;;;;46.75;11.52;;;;;;;-1.92;98.09;97265.09;5049966;28;20049;-74
2023/02/16 02:44:48;;;;;;;59.08;13.57;;;;;;;-1.96;98.00;97260.41;5049958;28;20052;-74
2023/02/16 02:47:14;;;;;;;30.05;10.88;;;;;;;-1.99;98.28;97258.97;5049217;28;20047;-74
2023/02/16 02:49:41;;;;;;;105.57;13.77;;;;;;;-2.09;98.13;97261.31;5050276;28;20045;-74
2023/02/16 02:52:09;;;;;;;67.95;12.40;;;;;;;-2.29;98.62;97268.63;5049720;28;20049;-75
2023/02/16 03:03:10;;;;;;;49.97;12.75;;;;;;;-2.17;98.60;97267.72;5049387;28;20187;-74
2023/02/16 03:05:40;;;;;;;58.17;13.50;;;;;;;-2.12;98.75;97267.09;5049935;28;20045;-74
2023/02/16 03:08:13;;;;;;;53.85;12.02;;;;;;;-2.17;98.89;97272.25;5049675;28;20037;-75
2023/02/16 03:13:32;;;;;;;44.85;11.27;;;;;;;-2.16;99.32;97265.88;5049319;28;20408;-74
2023/02/16 03:16:02;;;;;;;51.17;11.93;;;;;;;-2.15;99.11;97278.19;5049739;28;20485;-74
2023/02/16 03:29:33;;;;;;;42.85;10.18;;;;;;;-2.30;99.21;97272.31;5049841;28;20106;-74
2023/02/16 03:32:02;;;;;;;48.13;11.57;;;;;;;-2.24;99.24;97271.47;5050210;28;20044;-74
2023/02/16 03:34:30;;;;;;;64.95;11.77;;;;;;;-2.21;99.12;97271.03;5046225;28;20120;-74
2023/02/16 03:36:59;;;;;;;69.90;12.82;;;;;;;-2.24;99.45;97266.16;5050619;28;20099;-74
2023/02/16 03:39:27;;;;;;;47.42;11.27;;;;;;;-2.21;98.80;97271.03;5049574;28;20060;-74
2023/02/16 03:41:55;;;;;;;37.28;10.75;;;;;;;-2.26;98.60;97269.00;5049565;28;20451;-74
2023/02/16 03:44:23;;;;;;;42.55;10.48;;;;;;;-2.27;98.80;97271.91;5049016;28;20053;-74
2023/02/16 03:46:50;;;;;;;41.13;9.70;;;;;;;-2.31;98.99;97276.00;5049914;28;20493;-74
2023/02/16 03:49:19;;;;;;;35.03;10.15;;;;;;;-2.25;98.94;97280.50;5049411;28;20041;-74
2023/02/16 03:51:45;;;;;;;39.88;10.05;;;;;;;-2.30;98.99;97272.31;5049664;28;20048;-74
2023/02/16 03:54:12;;;;;;;43.78;10.70;;;;;;;-2.29;99.10;97273.97;5048981;28;20041;-74
2023/02/16 03:56:39;;;;;;;49.08;10.63;;;;;;;-2.30;99.02;97272.31;5049615;28;20041;-74
2023/02/16 03:59:05;;;;;;;44.15;11.02;;;;;;;-2.26;98.53;97279.69;5049173;28;20049;-74
2023/02/16 04:01:32;;;;;;;45.40;10.75;;;;;;;-2.22;98.33;97285.41;5049256;28;20052;-74
2023/02/16 04:03:58;;;;;;;43.72;10.90;;;;;;;-2.18;98.25;97292.78;5048848;28;20688;-74
2023/02/16 04:06:26;;;;;;;40.47;10.75;;;;;;;-2.13;97.93;97297.47;5050194;28;20432;-74
2023/02/16 04:08:53;;;;;;;42.63;10.15;;;;;;;-2.17;98.02;97298.94;5053543;28;20053;-74
2023/02/16 04:14:03;;;;;;;49.28;10.00;;;;;;;-2.19;97.98;97311.69;5052526;28;20103;-75
2023/02/16 04:16:30;;;;;;;32.28;9.05;;;;;;;-2.16;97.93;97305.91;5053208;28;20060;-74
2023/02/16 04:18:56;;;;;;;51.20;10.73;;;;;;;-2.42;98.19;97307.66;5052907;28;20057;-74
2023/02/16 04:21:23;;;;;;;59.35;11.43;;;;;;;-2.38;98.24;97308.06;5052570;28;20056;-74
2023/02/16 04:23:51;;;;;;;40.10;9.52;;;;;;;-2.42;98.11;97299.66;5052965;28;20037;-75
2023/02/16 04:26:17;;;;;;;46.75;9.95;;;;;;;-2.42;97.92;97297.00;5052579;28;20049;-74
2023/02/16 04:28:44;;;;;;;52.83;11.50;;;;;;;-2.43;97.75;97292.69;5052879;28;20056;-74
2023/02/16 04:31:10;;;;;;;59.95;11.63;;;;;;;-2.40;97.80;97296.81;5052059;28;20052;-74
2023/02/16 04:33:37;;;;;;;51.55;11.23;;;;;;;-2.43;97.66;97295.38;5052532;28;20436;-74
2023/02/16 04:36:04;;;;;;;54.72;11.45;;;;;;;-2.40;97.77;97294.94;5052015;28;20045;-74
2023/02/16 04:38:30;;;;;;;30.20;9.90;;;;;;;-2.45;98.02;97292.09;5052639;28;20044;-74
2023/02/16 04:40:58;;;;;;;43.22;11.18;;;;;;;-2.44;98.10;97301.75;5052506;28;20056;-74
2023/02/16 04:43:24;;;;;;;49.67;11.18;;;;;;;-2.46;98.51;97295.78;5051639;28;20041;-74
2023/02/16 04:45:51;;;;;;;50.22;9.93;;;;;;;-2.46;98.53;97295.78;5051798;28;20049;-74
2023/02/16 04:48:17;;;;;;;52.53;11.02;;;;;;;-2.42;98.50;97296.19;5051661;28;20107;-74
2023/02/16 04:50:44;;;;;;;55.15;10.27;;;;;;;-2.36;98.38;97298.81;5051522;28;20045;-74
2023/02/16 04:53:10;;;;;;;52.38;10.32;;;;;;;-2.45;98.61;97292.09;5051713;28;20049;-74
2023/02/16 04:55:37;;;;;;;58.15;11.18;;;;;;;-2.55;98.93;97290.91;5051394;28;20623;-74
2023/02/16 04:58:05;;;;;;;62.30;11.30;;;;;;;-2.51;99.04;97284.94;5051691;28;20045;-75
2023/02/16 05:00:31;;;;;;;37.55;10.40;;;;;;;-2.61;99.22;97276.59;5052393;28;20045;-74
2023/02/16 05:02:58;;;;;;;40.38;10.45;;;;;;;-2.52;99.33;97283.28;5052260;28;20045;-74
2023/02/16 05:05:24;;;;;;;49.42;10.77;;;;;;;-2.55;99.60;97275.75;5051915;28;20049;-74
2023/02/16 05:07:51;;;;;;;29.42;9.63;;;;;;;-2.53;99.46;97270.19;5054208;28;20055;-74
2023/02/16 05:10:17;;;;;;;47.50;10.25;;;;;;;-2.58;99.34;97276.16;5053333;28;20045;-74
2023/02/16 05:15:29;;;;;;;58.08;10.63;;;;;;;-2.64;99.04;97267.16;5052234;28;20064;-74
2023/02/16 05:17:56;;;;;;;49.50;10.10;;;;;;;-2.66;98.73;97281.72;5050187;28;20044;-74
2023/02/16 05:21:28;;;;;;;30.70;9.50;;;;;;;-2.68;98.35;97275.78;5031911;28;20049;-73
2023/02/16 05:23:09;;;;;;;44.95;9.80;;;;;;;-2.75;98.23;97280.31;5031440;28;20041;-74
2023/02/16 05:25:36;;;;;;;40.10;10.20;;;;;;;-2.75;97.94;97280.31;5032274;28;20420;-74
2023/02/16 05:28:02;;;;;;;36.55;9.35;;;;;;;-2.81;98.00;97275.84;5031650;28;20049;-75
2023/02/16 05:30:30;;;;;;;39.10;9.27;;;;;;;-3.02;97.89;97280.41;5038098;28;20673;-74
2023/02/16 05:32:57;;;;;;;36.70;9.93;;;;;;;-3.04;98.02;97293.09;5051360;28;20041;-74
2023/02/16 05:35:23;;;;;;;44.03;9.30;;;;;;;-3.04;97.53;97298.44;5051113;28;20048;-74
2023/02/16 05:37:50;;;;;;;36.90;9.45;;;;;;;-3.05;97.44;97298.66;5051861;28;20049;-74
2023/02/16 05:40:16;;;;;;;35.65;9.38;;;;;;;-3.09;97.06;97305.41;5050939;28;20049;-74
2023/02/16 05:42:43;;;;;;;42.15;10.00;;;;;;;-3.10;97.55;97301.94;5050653;28;20041;-74
2023/02/16 05:45:10;;;;;;;34.60;9.38;;;;;;;-3.10;97.68;97303.78;5050854;28;20523;-74
2023/02/16 05:47:37;;;;;;;42.88;9.45;;;;;;;-3.11;97.88;97307.47;5051472;28;20048;-74
2023/02/16 05:50:05;;;;;;;42.33;9.65;;;;;;;-3.13;97.97;97309.53;5051000;28;20052;-75
2023/02/16 05:52:32;;;;;;;45.33;9.60;;;;;;;-3.16;98.03;97306.25;5051327;28;20045;-74
2023/02/16 05:54:58;;;;;;;38.75;9.75;;;;;;;-3.17;97.95;97303.81;5050839;28;20049;-74
2023/02/16 05:57:25;;;;;;;38.05;10.13;;;;;;;-3.19;98.05;97311.16;5051204;28;20041;-74
2023/02/16 05:59:51;;;;;;;38.90;9.43;;;;;;;-3.20;98.27;97317.53;5051220;28;20620;-74
2023/02/16 06:02:17;;;;;;;33.00;9.35;;;;;;;-3.26;98.30;97315.69;5050225;28;20048;-74
2023/02/16 06:04:45;;;;;;;36.80;9.32;;;;;;;-3.27;98.33;97322.88;5050803;28;20448;-74
2023/02/16 06:07:12;;;;;;;30.77;8.77;;;;;;;-3.27;98.24;97324.72;5050775;28;20431;-74
2023/02/16 06:09:38;;;;;;;34.83;9.32;;;;;;;-3.27;98.30;97319.41;5051167;28;20515;-74
2023/02/16 06:12:05;;;;;;;35.35;9.32;;;;;;;-3.27;98.39;97322.06;5050580;28;20045;-74
2023/02/16 06:14:32;;;;;;;36.35;9.23;;;;;;;-3.26;98.41;97316.50;5050870;28;20055;-74
2023/02/16 06:17:00;;;;;;;44.55;9.68;;;;;;;-3.24;98.59;97313.63;5050822;28;20393;-74
2023/02/16 06:19:27;;;;;;;42.55;9.27;;;;;;;-3.23;98.60;97320.63;5050895;28;21054;-74
2023/02/16 06:21:54;;;;;;;40.67;10.27;;;;;;;-3.22;98.60;97327.59;5033258;28;20072;-74
2023/02/16 06:24:21;;;;;;;49.33;10.48;;;;;;;-3.21;98.67;97318.56;5050219;28;20052;-75
2023/02/16 06:26:47;;;;;;;54.15;10.77;;;;;;;-3.19;98.76;97316.50;5048908;28;20071;-75
2023/02/16 06:29:14;;;;;;;60.22;10.80;;;;;;;-3.17;98.93;97323.28;5048119;28;20057;-75
2023/02/16 06:31:40;;;;;;;60.00;11.27;;;;;;;-3.15;98.90;97336.38;5046860;28;20045;-75
2023/02/16 06:34:07;;;;;;;54.85;11.52;;;;;;;-3.12;98.69;97335.97;5046398;28;20060;-74
2023/02/16 06:36:33;;;;;;;51.00;10.38;;;;;;;-3.13;98.39;97329.00;5047289;28;20421;-75
2023/02/16 06:39:01;;;;;;;57.47;10.32;;;;;;;-3.13;98.20;97334.34;5047338;28;20111;-74
2023/02/16 06:41:34;;;;;;;51.92;10.90;;;;;;;-3.14;98.13;97335.34;5047122;28;20087;-75
2023/02/16 06:44:02;;;;;;;57.85;11.25;;;;;;;-3.10;98.05;97341.91;5046572;28;20756;-73
2023/02/16 06:46:29;;;;;;;46.13;11.30;;;;;;;-3.34;98.03;97346.03;5046714;28;20045;-74
2023/02/16 06:48:56;;;;;;;55.22;11.27;;;;;;;-3.24;98.68;97351.75;5047235;28;20056;-74
2023/02/16 06:51:22;;;;;;;47.72;11.10;;;;;;;-3.18;98.70;97356.28;5046883;28;20057;-74
2023/02/16 06:53:49;;;;;;;55.00;10.57;;;;;;;-3.08;98.80;97361.19;5046346;28;20052;-74
2023/02/16 06:56:17;;;;;;;47.70;9.93;;;;;;;-2.97;98.86;97360.56;5042507;28;20056;-74
2023/02/16 06:58:43;;;;;;;49.72;10.80;;;;;;;-2.94;98.99;97360.13;5047427;28;20041;-75
2023/02/16 07:01:10;;;;;;;25.70;9.93;;;;;;;-2.83;98.87;97360.50;5048190;28;20060;-74
2023/02/16 07:03:36;;;;;;;47.70;11.60;;;;;;;-2.86;98.84;97358.28;5048705;28;20048;-74
2023/02/16 07:06:03;;;;;;;51.22;10.57;;;;;;;-2.95;98.97;97366.47;5048139;28;20504;-75
2023/02/16 07:08:30;;;;;;;33.00;9.48;;;;;;;-2.78;98.86;97360.72;5049025;28;20053;-74
2023/02/16 07:10:56;;;;;;;42.92;10.88;;;;;;;-2.89;99.31;97364.84;5048623;28;20071;-75
2023/02/16 07:13:24;;;;;;;44.88;11.10;;;;;;;-2.89;100.00;97365.66;5048008;28;20052;-74
2023/02/16 07:15:50;;;;;;;39.92;11.25;;;;;;;-2.66;99.95;97369.72;5048941;28;20041;-74
2023/02/16 07:18:17;;;;;;;37.10;9.95;;;;;;;-2.58;99.13;97366.81;5052966;28;20045;-74
2023/02/16 07:20:43;;;;;;;32.70;9.93;;;;;;;-2.59;98.88;97367.84;5055363;28;20049;-75
2023/02/16 07:23:10;;;;;;;52.85;10.93;;;;;;;-2.35;98.52;97366.31;5053986;28;20057;-74
2023/02/16 07:25:36;;;;;;;47.15;11.02;;;;;;;-2.27;98.13;97362.59;5054610;28;20656;-74
2023/02/16 07:28:03;;;;;;;47.38;11.68;;;;;;;-2.36;97.86;97370.84;5054532;28;20057;-74
2023/02/16 07:30:31;;;;;;;41.00;10.18;;;;;;;-2.44;97.92;97373.75;5055667;28;20048;-74
2023/02/16 07:32:58;;;;;;;49.47;11.13;;;;;;;-2.25;98.09;97377.34;5054550;28;20057;-74
2023/02/16 07:35:25;;;;;;;38.20;10.73;;;;;;;-2.21;97.82;97373.25;5056963;28;20047;-74
2023/02/16 07:37:51;;;;;;;39.60;10.18;;;;;;;-2.05;97.58;97374.59;5056175;28;20041;-74
2023/02/16 07:40:18;;;;;;;28.55;9.30;;;;;;;-1.92;97.43;97369.22;5055388;28;20671;-75
2023/02/16 07:42:44;;;;;;;38.80;10.07;;;;;;;-1.84;97.19;97368.94;5060584;28;20052;-75
2023/02/16 07:45:11;;;;;;;49.50;11.45;;;;;;;-1.72;96.95;97365.59;5061422;28;20078;-75
2023/02/16 07:47:39;;;;;;;30.45;10.18;;;;;;;-1.60;96.66;97374.56;5062051;28;20037;-75
2023/02/16 07:50:06;;;;;;;52.72;12.20;;;;;;;-1.48;96.77;97370.16;5059467;28;20048;-75
2023/02/16 07:52:34;;;;;;;66.10;12.05;;;;;;;-1.35;96.71;97366.59;5059218;28;20044;-75
2023/02/16 07:55:00;;;;;;;54.13;11.75;;;;;;;-1.19;96.70;97365.22;5058888;28;20052;-75
2023/02/16 07:57:28;;;;;;;49.75;11.98;;;;;;;-1.25;96.02;97360.72;5059146;28;20095;-75
2023/02/16 07:59:55;;;;;;;66.10;12.27;;;;;;;-1.05;95.93;97364.06;5053315;28;20103;-74
2023/02/16 08:02:23;;;;;;;55.70;12.77;;;;;;;-0.87;95.93;97372.13;5049683;28;20523;-74
2023/02/16 08:04:52;;;;;;;55.88;12.88;;;;;;;-0.70;95.76;97369.69;5050042;28;20507;-74
2023/02/16 08:07:19;;;;;;;49.47;12.05;;;;;;;-0.51;95.48;97370.53;5049517;28;20049;-73
2023/02/16 08:09:45;;;;;;;52.55;11.43;;;;;;;-0.43;94.93;97364.06;5050338;28;20102;-74
2023/02/16 08:12:14;;;;;;;55.08;12.10;;;;;;;-0.32;94.88;97376.69;5049441;28;20463;-74
2023/02/16 08:14:40;;;;;;;52.78;11.50;;;;;;;-0.18;94.53;97378.19;5049804;28;20083;-71
2023/02/16 08:17:07;;;;;;;40.33;10.80;;;;;;;-0.03;94.32;97380.47;5049368;28;20048;-72
2023/02/16 08:19:35;;;;;;;48.78;11.40;;;;;;;0.18;93.73;97369.28;5049790;28;20049;-74
2023/02/16 08:22:06;;;;;;;58.03;12.27;;;;;;;0.66;91.05;97379.09;5049353;28;20102;-72
2023/02/16 08:24:33;;;;;;;48.55;11.02;;;;;;;0.95;90.05;97381.97;5049946;28;20053;-72
2023/02/16 08:27:02;;;;;;;55.95;11.70;;;;;;;0.81;87.93;97380.53;5050036;28;20139;-71
2023/02/16 08:29:29;;;;;;;51.85;10.85;;;;;;;1.48;86.85;97383.72;5049322;28;20049;-72
2023/02/16 08:31:56;;;;;;;51.60;10.85;;;;;;;2.48;83.93;97387.88;5049630;28;20057;-73
2023/02/16 08:34:23;;;;;;;49.50;10.98;;;;;;;3.37;78.47;97388.84;5048709;28;20068;-72
2023/02/16 08:36:55;;;;;;;55.13;10.45;;;;;;;4.24;72.54;97381.91;5049586;28;20041;-72
2023/02/16 08:39:24;;;;;;;44.92;8.32;;;;;;;4.60;67.11;97390.41;5050422;28;20524;-71
2023/02/16 08:41:52;;;;;;;55.67;9.52;;;;;;;4.91;65.40;97384.22;5050838;28;20106;-72
2023/02/16 08:44:20;;;;;;;33.22;7.82;;;;;;;4.92;65.60;97388.56;5050243;28;20052;-72
2023/02/16 08:46:48;;;;;;;45.67;8.68;;;;;;;5.46;65.49;97393.03;5050668;28;20049;-73
2023/02/16 08:49:18;;;;;;;44.90;8.85;;;;;;;5.68;62.82;97390.19;5050668;28;20052;-74
2023/02/16 08:51:47;;;;;;;43.42;8.27;;;;;;;6.73;61.74;97396.34;5049385;28;20075;-73
2023/02/16 08:54:16;;;;;;;51.17;9.13;;;;;;;7.00;60.52;97393.41;5048911;28;20538;-72
2023/02/16 08:56:46;;;;;;;51.45;9.40;;;;;;;7.18;59.60;97392.06;5049399;28;20140;-72
2023/02/16 08:59:14;;;;;;;55.38;8.95;;;;;;;5.74;60.96;97389.13;5048669;28;20078;-72
2023/02/16 09:01:41;;;;;;;66.43;9.45;;;;;;;5.46;64.06;97388.44;5049116;28;20048;-72
2023/02/16 09:04:07;;;;;;;47.38;8.45;;;;;;;5.97;65.09;97382.56;5048135;28;20049;-72
2023/02/16 09:06:37;;;;;;;57.83;9.10;;;;;;;5.93;64.20;97387.66;5048691;28;20048;-73
2023/02/16 09:09:04;;;;;;;35.00;8.20;;;;;;;5.75;64.77;97379.97;5049167;28;20057;-72
2023/02/16 09:11:31;;;;;;;54.38;9.95;;;;;;;5.25;67.84;97381.25;5050018;28;20052;-71
2023/02/16 09:13:59;;;;;;;37.17;8.02;;;;;;;5.07;68.77;97379.78;5051333;28;20869;-72
2023/02/16 09:16:27;;;;;;;30.75;7.70;;;;;;;5.02;69.83;97377.03;5052215;28;20555;-72
2023/02/16 09:18:56;;;;;;;28.35;7.82;;;;;;;5.55;68.91;97374.44;5054578;28;20138;-72
2023/02/16 09:21:25;;;;;;;33.17;7.72;;;;;;;5.89;67.66;97381.13;5054754;28;20057;-73
2023/02/16 09:23:55;;;;;;;40.10;8.05;;;;;;;5.89;66.63;97378.41;5054946;28;20053;-75
2023/02/16 09:26:24;;;;;;;22.73;7.63;;;;;;;5.94;67.58;97377.66;5055073;28;20045;-74
2023/02/16 09:28:52;;;;;;;38.33;8.00;;;;;;;6.18;67.38;97380.75;5055845;28;20045;-74
2023/02/16 09:31:25;;;;;;;42.63;8.60;;;;;;;6.69;65.07;97373.59;5055514;28;20098;-73
2023/02/16 09:33:53;;;;;;;34.58;7.78;;;;;;;7.59;62.48;97371.16;5055966;28;20041;-74
2023/02/16 09:36:20;;;;;;;41.15;8.73;;;;;;;7.94;60.79;97379.50;5052811;28;20044;-71
2023/02/16 09:38:47;;;;;;;41.45;8.15;;;;;;;8.36;59.30;97376.41;5055609;28;20044;-72
2023/02/16 09:41:23;;;;;;;44.45;7.97;;;;;;;8.72;57.66;97378.91;5055471;28;20045;-72
2023/02/16 09:43:57;;;;;;;39.05;7.65;;;;;;;8.76;58.35;97379.97;5056127;28;20052;-72
2023/02/16 09:46:28;;;;;;;38.47;8.30;;;;;;;9.13;57.10;97377.56;5057049;28;20048;-72
2023/02/16 09:48:55;;;;;;;36.45;7.88;;;;;;;9.35;56.11;97373.56;5057862;28;20049;-73
2023/02/16 09:51:27;;;;;;;43.30;8.85;;;;;;;9.57;54.09;97379.34;5057886;28;20079;-73
2023/02/16 09:53:59;;;;;;;31.30;7.78;;;;;;;9.60;55.00;97381.47;5058690;28;20052;-73
2023/02/16 09:56:31;;;;;;;29.20;7.78;;;;;;;10.01;53.43;97381.06;5059099;28;20048;-73
2023/02/16 09:59:04;;;;;;;38.78;8.05;;;;;;;10.13;54.33;97378.78;5057576;28;20051;-72
2023/02/16 10:01:39;;;;;;;43.60;7.85;;;;;;;9.65;53.44;97389.59;5055389;28;20033;-72
2023/02/16 10:04:24;;;;;;;44.30;8.65;;;;;;;9.54;55.37;97382.63;5053105;28;20049;-73
2023/02/16 10:07:02;;;;;;;34.25;8.15;;;;;;;9.60;54.66;97376.03;5052726;28;20057;-71
2023/02/16 10:09:31;;;;;;;37.90;8.27;;;;;;;9.67;54.54;97381.97;5050314;28;20493;-71
2023/02/16 10:12:06;;;;;;;48.15;9.60;;;;;;;9.97;53.42;97384.66;5048420;28;20123;-71
2023/02/16 10:14:40;;;;;;;37.30;8.85;;;;;;;10.67;52.56;97372.13;5049967;28;20061;-73
2023/02/16 10:17:15;;;;;;;36.03;8.63;;;;;;;10.65;53.50;97373.53;5050553;28;20056;-72
2023/02/16 10:19:48;;;;;;;39.97;9.00;;;;;;;10.18;53.56;97370.53;5050972;28;20049;-73
2023/02/16 10:22:20;;;;;;;29.95;8.10;;;;;;;9.90;54.81;97365.97;5050925;28;20051;-72
2023/02/16 10:24:57;;;;;;;40.50;9.23;;;;;;;9.05;56.40;97359.13;5056374;28;20045;-72
2023/02/16 10:27:32;;;;;;;32.92;8.88;;;;;;;8.96;57.95;97360.81;5057922;28;20049;-73
2023/02/16 10:29:59;;;;;;;75.68;11.40;;;;;;;9.06;57.66;97355.31;5056381;28;20053;-72
2023/02/16 10:32:31;;;;;;;60.33;10.05;;;;;;;8.46;58.84;97362.78;5054516;28;20045;-72
2023/02/16 10:35:09;;;;;;;62.77;10.10;;;;;;;7.96;62.57;97358.34;5054833;28;20051;-74
2023/02/16 10:37:54;;;;;;;60.83;10.30;;;;;;;8.35;62.30;97350.28;5056088;28;20051;-72
2023/02/16 10:40:29;;;;;;;43.92;9.43;;;;;;;8.55;61.79;97358.34;5054171;28;20512;-72
2023/02/16 10:43:00;;;;;;;50.00;9.52;;;;;;;9.50;60.51;97362.56;5048246;28;20136;-74
2023/02/16 10:45:33;;;;;;;51.65;9.57;;;;;;;9.37;58.38;97353.16;5048061;28;20134;-72
2023/02/16 10:48:01;;;;;;;71.65;11.32;;;;;;;9.29;58.08;97347.50;5047146;28;20136;-72
2023/02/16 10:50:31;;;;;;;60.65;10.38;;;;;;;9.03;60.13;97345.03;5047051;28;20052;-73
2023/02/16 10:53:01;;;;;;;62.80;11.05;;;;;;;9.01;63.23;97341.75;5047043;28;20103;-72
2023/02/16 10:55:28;;;;;;;54.38;10.55;;;;;;;9.12;62.67;97347.94;5046963;28;20044;-71
2023/02/16 10:57:58;;;;;;;61.30;10.65;;;;;;;9.02;64.15;97343.38;5028852;28;20140;-76
2023/02/16 11:00:34;;;;;;;59.25;11.07;;;;;;;8.95;62.29;97342.91;5046134;28;20041;-73
2023/02/16 11:03:03;;;;;;;54.97;11.05;;;;;;;9.04;63.64;97340.41;5046503;28;20056;-72
2023/02/16 11:05:37;;;;;;;60.05;10.88;;;;;;;9.02;63.92;97337.94;5046400;28;20069;-72
2023/02/16 11:08:05;;;;;;;68.43;11.32;;;;;;;9.18;65.52;97329.66;5046214;28;20598;-74
2023/02/16 11:10:47;;;;;;;53.20;11.02;;;;;;;9.00;66.29;97329.28;5046227;28;20072;-73
2023/02/16 11:13:26;;;;;;;54.43;10.40;;;;;;;8.96;66.20;97325.50;5046355;28;20496;-73
2023/02/16 11:15:55;;;;;;;58.20;11.10;;;;;;;9.14;65.34;97316.69;5046036;28;20575;-72
2023/02/16 11:18:35;;;;;;;54.03;11.25;;;;;;;9.11;63.96;97324.56;5046243;28;20048;-72
2023/02/16 11:21:03;;;;;;;46.65;11.13;;;;;;;8.90;65.60;97318.50;5046069;28;20057;-78
2023/02/16 11:23:32;;;;;;;48.42;10.93;;;;;;;9.08;66.79;97306.94;5046378;28;20053;-73
2023/02/16 11:26:02;;;;;;;42.97;11.38;;;;;;;9.34;62.51;97318.41;5046395;28;20049;-72
2023/02/16 11:28:32;;;;;;;53.88;11.52;;;;;;;9.42;62.49;97308.81;5046215;28;20049;-72
2023/02/16 11:31:12;;;;;;;37.50;11.05;;;;;;;9.80;65.14;97303.50;5046619;28;20707;-72
2023/02/16 11:33:41;;;;;;;31.95;10.25;;;;;;;9.99;61.34;97300.84;5045845;28;20056;-72
2023/02/16 11:36:27;;;;;;;52.08;11.82;;;;;;;9.65;59.13;97297.13;5046331;28;20056;-73
2023/02/16 11:39:00;;;;;;;51.92;12.35;;;;;;;9.94;59.74;97293.53;5046372;28;20072;-72
2023/02/16 11:41:28;;;;;;;47.93;11.77;;;;;;;10.14;58.50;97293.28;5045918;28;20041;-72
2023/02/16 11:43:55;;;;;;;48.30;12.02;;;;;;;10.06;58.80;97291.22;5046180;28;20111;-73
2023/02/16 11:46:23;;;;;;;41.35;11.05;;;;;;;10.09;60.08;97287.91;5045873;28;20447;-72
2023/02/16 11:48:52;;;;;;;42.75;11.60;;;;;;;10.25;59.45;97287.75;5046520;28;20532;-71
2023/02/16 11:51:32;;;;;;;52.42;13.05;;;;;;;10.85;56.64;97279.78;5045575;28;20045;-74
2023/02/16 11:54:04;;;;;;;46.78;11.15;;;;;;;10.84;53.14;97275.44;5046050;28;20048;-71
2023/02/16 11:56:33;;;;;;;40.88;10.57;;;;;;;10.93;51.39;97270.94;5046049;28;20481;-73
2023/02/16 11:59:21;;;;;;;39.60;10.45;;;;;;;11.15;54.27;97268.38;5045685;28;20700;-73
2023/02/16 12:02:11;;;;;;;50.65;11.88;;;;;;;10.89;51.57;97273.44;5039594;28;20484;-72
2023/02/16 12:04:54;;;;;;;41.40;11.77;;;;;;;11.02;52.79;97269.16;5045979;28;20107;-72
2023/02/16 12:07:29;;;;;;;43.70;11.55;;;;;;;11.43;52.87;97262.97;5045782;28;20648;-71
2023/02/16 12:10:07;;;;;;;50.13;11.70;;;;;;;11.68;52.46;97262.47;5045655;28;20103;-72
2023/02/16 12:12:45;;;;;;;48.20;11.25;;;;;;;11.52;51.61;97263.88;5046293;28;20052;-73
2023/02/16 12:15:21;;;;;;;42.20;10.90;;;;;;;11.47;50.51;97259.31;5052184;28;20055;-72